Wetterdaten: April 2014
Datum Temp Feuchte Luftdruck Regen Wind Richtung Sonnenschein UV Solar Windben
01.04.2014 13,7 C 70 % 1010,7 hPa 0,4 l/m 0,0 km/h S 7,08 h 1,6 UV-I 292 W/m 0,0 km/h
02.04.2014 13,1 C 73 % 1006,0 hPa 0,0 l/m 0,0 km/h S-SO 7,50 h 1,7 UV-I 319 W/m 1,6 km/h
03.04.2014 15,7 C 64 % 1004,0 hPa 0,0 l/m 1,8 km/h S-SW 6,42 h 1,8 UV-I 305 W/m 4,8 km/h
04.04.2014 13,5 C 82 % 1008,1 hPa 0,0 l/m 0,0 km/h S-SO 0,17 h 1,0 UV-I 148 W/m 0,0 km/h
05.04.2014 10,6 C 95 % 1014,9 hPa 0,2 l/m 0,0 km/h W-NW 0,17 h 0,7 UV-I 70 W/m 0,0 km/h
06.04.2014 11,9 C 83 % 1017,1 hPa 0,2 l/m 2,5 km/h S-SW 7,58 h 1,9 UV-I 318 W/m 8,0 km/h
07.04.2014 15,1 C 79 % 1012,5 hPa 0,0 l/m 2,0 km/h S 2,92 h 1,6 UV-I 208 W/m 3,6 km/h
08.04.2014 8,0 C 84 % 1014,4 hPa 2,8 l/m 12,0 km/h S-SW 1,67 h 1,4 UV-I 156 W/m 29,0 km/h
09.04.2014 7,3 C 89 % 1022,1 hPa 3,4 l/m 4,4 km/h W 0,17 h 1,1 UV-I 102 W/m 20,1 km/h
10.04.2014 9,4 C 92 % 1020,9 hPa 0,6 l/m 0,6 km/h N-NW 0,17 h 1,2 UV-I 98 W/m 5,3 km/h
11.04.2014 8,5 C 88 % 1018,5 hPa 0,0 l/m 0,1 km/h N 0,00 h 1,2 UV-I 144 W/m 2,0 km/h
12.04.2014 9,4 C 74 % 1016,8 hPa 0,0 l/m 0,3 km/h W-NW 6,67 h 2,2 UV-I 333 W/m 4,4 km/h
13.04.2014 9,3 C 75 % 1016,6 hPa 0,0 l/m 5,3 km/h W 1,58 h 1,6 UV-I 184 W/m 19,7 km/h
14.04.2014 4,2 C 90 % 1015,3 hPa 6,2 l/m 5,7 km/h N-NW 1,67 h 1,3 UV-I 162 W/m 22,9 km/h
15.04.2014 3,9 C 81 % 1025,2 hPa 0,0 l/m 1,6 km/h N-NW 0,67 h 1,1 UV-I 139 W/m 9,3 km/h
16.04.2014 4,8 C 78 % 1029,6 hPa 0,0 l/m 0,6 km/h N-NO 8,50 h 2,3 UV-I 372 W/m 2,8 km/h
17.04.2014 9,4 C 61 % 1017,3 hPa 0,0 l/m 4,9 km/h S 9,25 h 2,4 UV-I 396 W/m 10,8 km/h
18.04.2014 6,7 C 84 % 1012,4 hPa 5,0 l/m 8,8 km/h N-NW 2,83 h 1,7 UV-I 242 W/m 22,1 km/h
19.04.2014 10,2 C 84 % 1016,1 hPa 0,2 l/m 3,8 km/h NO 10,42 h 2,4 UV-I 419 W/m 12,4 km/h
20.04.2014 12,3 C 74 % 1008,7 hPa 0,0 l/m 3,5 km/h SO 8,75 h 2,0 UV-I 353 W/m 10,5 km/h
21.04.2014 11,1 C 87 % 1005,0 hPa 1,4 l/m 2,1 km/h N-NO 3,67 h 1,7 UV-I 231 W/m 6,4 km/h
22.04.2014 10,1 C 91 % 1012,4 hPa 0,6 l/m 0,0 km/h S 2,67 h 1,7 UV-I 192 W/m 0,0 km/h
23.04.2014 11,0 C 87 % 1019,6 hPa 2,2 l/m 0,0 km/h SO 6,00 h 2,1 UV-I 294 W/m 0,8 km/h
24.04.2014 14,1 C 76 % 1017,9 hPa 0,2 l/m 0,4 km/h N-NO 9,83 h 2,3 UV-I 372 W/m 2,4 km/h
25.04.2014 15,8 C 77 % 1012,1 hPa 0,0 l/m 2,4 km/h SO 9,83 h 2,7 UV-I 416 W/m 8,4 km/h
26.04.2014 13,2 C 91 % 1009,7 hPa 6,2 l/m 0,7 km/h W 2,75 h 1,5 UV-I 214 W/m 2,8 km/h
27.04.2014 10,8 C 97 % 1007,0 hPa 3,6 l/m 0,0 km/h W 0,08 h 0,7 UV-I 74 W/m 0,0 km/h
28.04.2014 12,5 C 96 % 1010,5 hPa 1,4 l/m 0,1 km/h N-NO 0,25 h 1,3 UV-I 113 W/m 1,6 km/h
29.04.2014 13,5 C 87 % 1010,5 hPa 0,4 l/m 0,0 km/h SO 3,75 h 1,9 UV-I 258 W/m 0,0 km/h
30.04.2014 14,6 C 86 % 1009,6 hPa 0,2 l/m 0,4 km/h W 8,33 h 2,5 UV-I 391 W/m 2,4 km/h
Min-Datum 16.04.14 01.04.14 03.04.14 18 Tage 01.04.14 - - - - 01.04.14
Min-Zeit 06:50 15:05 17:00 - 00:00 - - - - 00:00
Minimum -2,4 C 40 % 1003,0 hPa - 0,0 km/h - - - - 0,0 km/h
Max-Datum 03.04.14 23.04.14 16.04.14 14.04.14 14.04.14 - 19.04.14 29.04.14 18.04.14 14.04.14
Max-Zeit 15:00 08:30 10:50 06:55 13:30 - 19:05 13:00 13:40 17:05
Maximum 22,4 C 100 % 1031,5 hPa 6,2 l/m 29,3 km/h
N-NW
- 10,33 h 4,9 UV-I 1046 W/m 57,9 km/h
N-NW
Durchschnitt 10,8 C 82 % 1014,1 hPa #35,2 l/m 2,1 km/h NW #131:20 h 1,7 UV-I 244 W/m 7,1 km/h

Durchschnitt Minimum Temp.6,3 C
Durchschnitt Maximum Temp.16,2 C